sensor_id;sensor_type;location;lat;lon;timestamp;P1;durP1;ratioP1;P2;durP2;ratioP2
8333;SDS011;4204;43.004;23.052;2022-12-29T00:00:56;11.83;;;8.83;;
8333;SDS011;4204;43.004;23.052;2022-12-29T00:03:28;10.43;;;8.00;;
8333;SDS011;4204;43.004;23.052;2022-12-29T00:05:56;12.97;;;9.90;;
8333;SDS011;4204;43.004;23.052;2022-12-29T00:08:24;13.73;;;10.63;;
8333;SDS011;4204;43.004;23.052;2022-12-29T00:11:05;15.03;;;11.43;;
8333;SDS011;4204;43.004;23.052;2022-12-29T00:13:33;15.20;;;10.87;;
8333;SDS011;4204;43.004;23.052;2022-12-29T00:16:19;14.27;;;10.37;;
8333;SDS011;4204;43.004;23.052;2022-12-29T00:18:48;16.00;;;10.53;;
8333;SDS011;4204;43.004;23.052;2022-12-29T00:21:16;15.37;;;10.83;;
8333;SDS011;4204;43.004;23.052;2022-12-29T00:24:03;15.83;;;11.40;;
8333;SDS011;4204;43.004;23.052;2022-12-29T00:26:48;15.77;;;10.70;;
8333;SDS011;4204;43.004;23.052;2022-12-29T00:29:39;13.93;;;11.03;;
8333;SDS011;4204;43.004;23.052;2022-12-29T00:32:24;18.30;;;11.57;;
8333;SDS011;4204;43.004;23.052;2022-12-29T00:35:12;14.83;;;10.50;;
8333;SDS011;4204;43.004;23.052;2022-12-29T00:37:43;13.40;;;10.07;;
8333;SDS011;4204;43.004;23.052;2022-12-29T00:40:33;13.03;;;10.60;;
8333;SDS011;4204;43.004;23.052;2022-12-29T00:43:20;12.50;;;10.07;;
8333;SDS011;4204;43.004;23.052;2022-12-29T00:46:06;15.37;;;10.70;;
8333;SDS011;4204;43.004;23.052;2022-12-29T00:48:33;14.80;;;11.03;;
8333;SDS011;4204;43.004;23.052;2022-12-29T00:51:20;15.50;;;10.97;;
8333;SDS011;4204;43.004;23.052;2022-12-29T00:53:47;14.17;;;10.07;;
8333;SDS011;4204;43.004;23.052;2022-12-29T00:56:15;14.40;;;10.30;;
8333;SDS011;4204;43.004;23.052;2022-12-29T00:58:43;14.20;;;10.37;;
8333;SDS011;4204;43.004;23.052;2022-12-29T01:01:11;15.30;;;11.10;;
8333;SDS011;4204;43.004;23.052;2022-12-29T01:03:38;17.27;;;11.57;;
8333;SDS011;4204;43.004;23.052;2022-12-29T01:06:07;16.77;;;11.67;;
8333;SDS011;4204;43.004;23.052;2022-12-29T01:08:38;16.70;;;11.87;;
8333;SDS011;4204;43.004;23.052;2022-12-29T01:11:06;15.83;;;11.17;;
8333;SDS011;4204;43.004;23.052;2022-12-29T01:13:35;16.53;;;11.77;;
8333;SDS011;4204;43.004;23.052;2022-12-29T01:16:04;16.60;;;11.20;;
8333;SDS011;4204;43.004;23.052;2022-12-29T01:18:32;15.40;;;10.80;;
8333;SDS011;4204;43.004;23.052;2022-12-29T01:21:00;16.47;;;10.63;;
8333;SDS011;4204;43.004;23.052;2022-12-29T01:23:30;14.83;;;10.23;;
8333;SDS011;4204;43.004;23.052;2022-12-29T01:26:09;14.17;;;9.87;;
8333;SDS011;4204;43.004;23.052;2022-12-29T01:28:37;13.57;;;9.77;;
8333;SDS011;4204;43.004;23.052;2022-12-29T01:31:06;15.00;;;10.10;;
8333;SDS011;4204;43.004;23.052;2022-12-29T01:33:33;15.70;;;10.73;;
8333;SDS011;4204;43.004;23.052;2022-12-29T01:36:01;15.00;;;10.23;;
8333;SDS011;4204;43.004;23.052;2022-12-29T01:38:30;16.13;;;10.73;;
8333;SDS011;4204;43.004;23.052;2022-12-29T01:40:58;16.03;;;9.83;;
8333;SDS011;4204;43.004;23.052;2022-12-29T01:43:38;16.23;;;10.50;;
8333;SDS011;4204;43.004;23.052;2022-12-29T01:46:09;16.13;;;10.73;;
8333;SDS011;4204;43.004;23.052;2022-12-29T01:48:43;15.20;;;10.87;;
8333;SDS011;4204;43.004;23.052;2022-12-29T01:51:12;16.27;;;11.00;;
8333;SDS011;4204;43.004;23.052;2022-12-29T01:53:40;14.23;;;10.20;;
8333;SDS011;4204;43.004;23.052;2022-12-29T01:56:09;15.13;;;9.43;;
8333;SDS011;4204;43.004;23.052;2022-12-29T01:58:46;14.77;;;10.00;;
8333;SDS011;4204;43.004;23.052;2022-12-29T02:01:18;20.17;;;11.73;;
8333;SDS011;4204;43.004;23.052;2022-12-29T02:03:48;21.50;;;11.50;;
8333;SDS011;4204;43.004;23.052;2022-12-29T02:06:18;18.47;;;11.27;;
8333;SDS011;4204;43.004;23.052;2022-12-29T02:08:49;23.17;;;12.70;;
8333;SDS011;4204;43.004;23.052;2022-12-29T02:11:23;16.70;;;10.63;;
8333;SDS011;4204;43.004;23.052;2022-12-29T02:13:54;21.73;;;12.47;;
8333;SDS011;4204;43.004;23.052;2022-12-29T02:16:29;17.03;;;10.77;;
8333;SDS011;4204;43.004;23.052;2022-12-29T02:19:22;22.03;;;12.40;;
8333;SDS011;4204;43.004;23.052;2022-12-29T02:22:19;16.13;;;10.90;;
8333;SDS011;4204;43.004;23.052;2022-12-29T02:27:55;13.83;;;9.87;;
8333;SDS011;4204;43.004;23.052;2022-12-29T02:30:40;12.00;;;8.50;;
8333;SDS011;4204;43.004;23.052;2022-12-29T02:33:19;14.67;;;9.47;;
8333;SDS011;4204;43.004;23.052;2022-12-29T02:35:54;12.87;;;9.67;;
8333;SDS011;4204;43.004;23.052;2022-12-29T02:38:29;17.23;;;9.80;;
8333;SDS011;4204;43.004;23.052;2022-12-29T02:41:10;17.13;;;9.53;;
8333;SDS011;4204;43.004;23.052;2022-12-29T02:43:48;14.23;;;9.73;;
8333;SDS011;4204;43.004;23.052;2022-12-29T02:46:21;13.87;;;9.53;;
8333;SDS011;4204;43.004;23.052;2022-12-29T02:48:57;12.10;;;9.57;;
8333;SDS011;4204;43.004;23.052;2022-12-29T02:51:35;13.47;;;9.90;;
8333;SDS011;4204;43.004;23.052;2022-12-29T02:54:08;13.20;;;10.03;;
8333;SDS011;4204;43.004;23.052;2022-12-29T02:56:54;12.60;;;9.87;;
8333;SDS011;4204;43.004;23.052;2022-12-29T02:59:22;13.53;;;10.20;;
8333;SDS011;4204;43.004;23.052;2022-12-29T03:02:05;14.47;;;9.57;;
8333;SDS011;4204;43.004;23.052;2022-12-29T03:04:51;16.33;;;10.30;;
8333;SDS011;4204;43.004;23.052;2022-12-29T03:07:37;14.00;;;10.00;;
8333;SDS011;4204;43.004;23.052;2022-12-29T03:10:14;14.77;;;10.53;;
8333;SDS011;4204;43.004;23.052;2022-12-29T03:12:53;15.73;;;11.30;;
8333;SDS011;4204;43.004;23.052;2022-12-29T03:15:49;15.10;;;10.40;;
8333;SDS011;4204;43.004;23.052;2022-12-29T03:21:25;14.90;;;9.57;;
8333;SDS011;4204;43.004;23.052;2022-12-29T03:24:15;14.10;;;9.20;;
8333;SDS011;4204;43.004;23.052;2022-12-29T03:26:46;14.23;;;9.30;;
8333;SDS011;4204;43.004;23.052;2022-12-29T03:29:18;14.60;;;9.90;;
8333;SDS011;4204;43.004;23.052;2022-12-29T03:31:48;17.80;;;10.67;;
8333;SDS011;4204;43.004;23.052;2022-12-29T03:34:20;14.60;;;9.80;;
8333;SDS011;4204;43.004;23.052;2022-12-29T03:36:50;15.20;;;10.60;;
8333;SDS011;4204;43.004;23.052;2022-12-29T03:39:23;15.33;;;9.90;;
8333;SDS011;4204;43.004;23.052;2022-12-29T03:41:54;17.90;;;11.00;;
8333;SDS011;4204;43.004;23.052;2022-12-29T03:44:31;19.17;;;10.57;;
8333;SDS011;4204;43.004;23.052;2022-12-29T03:47:00;20.47;;;13.10;;
8333;SDS011;4204;43.004;23.052;2022-12-29T03:49:29;18.93;;;11.90;;
8333;SDS011;4204;43.004;23.052;2022-12-29T03:51:57;19.10;;;12.37;;
8333;SDS011;4204;43.004;23.052;2022-12-29T03:54:25;18.03;;;11.27;;
8333;SDS011;4204;43.004;23.052;2022-12-29T03:56:53;19.40;;;11.57;;
8333;SDS011;4204;43.004;23.052;2022-12-29T03:59:32;16.80;;;11.80;;
8333;SDS011;4204;43.004;23.052;2022-12-29T04:02:00;18.40;;;11.57;;
8333;SDS011;4204;43.004;23.052;2022-12-29T04:04:29;17.63;;;11.13;;
8333;SDS011;4204;43.004;23.052;2022-12-29T04:06:57;14.67;;;10.33;;
8333;SDS011;4204;43.004;23.052;2022-12-29T04:09:25;14.07;;;9.87;;
8333;SDS011;4204;43.004;23.052;2022-12-29T04:11:53;14.77;;;10.40;;
8333;SDS011;4204;43.004;23.052;2022-12-29T04:14:21;14.77;;;10.13;;
8333;SDS011;4204;43.004;23.052;2022-12-29T04:16:49;13.90;;;9.93;;
8333;SDS011;4204;43.004;23.052;2022-12-29T04:19:17;16.67;;;10.60;;
8333;SDS011;4204;43.004;23.052;2022-12-29T04:21:47;16.70;;;10.23;;
8333;SDS011;4204;43.004;23.052;2022-12-29T04:24:15;16.00;;;9.30;;
8333;SDS011;4204;43.004;23.052;2022-12-29T04:26:42;16.63;;;10.83;;
8333;SDS011;4204;43.004;23.052;2022-12-29T04:29:29;17.50;;;11.20;;
8333;SDS011;4204;43.004;23.052;2022-12-29T04:32:17;15.80;;;10.43;;
8333;SDS011;4204;43.004;23.052;2022-12-29T04:34:48;15.93;;;11.03;;
8333;SDS011;4204;43.004;23.052;2022-12-29T04:37:18;17.63;;;11.63;;
8333;SDS011;4204;43.004;23.052;2022-12-29T04:39:46;18.00;;;11.33;;
8333;SDS011;4204;43.004;23.052;2022-12-29T04:42:14;16.07;;;11.03;;
8333;SDS011;4204;43.004;23.052;2022-12-29T04:44:43;17.83;;;11.30;;
8333;SDS011;4204;43.004;23.052;2022-12-29T04:47:14;20.80;;;11.40;;
8333;SDS011;4204;43.004;23.052;2022-12-29T04:50:05;21.83;;;12.20;;
8333;SDS011;4204;43.004;23.052;2022-12-29T04:52:35;22.87;;;13.23;;
8333;SDS011;4204;43.004;23.052;2022-12-29T04:55:03;22.60;;;13.47;;
8333;SDS011;4204;43.004;23.052;2022-12-29T04:57:31;24.63;;;13.97;;
8333;SDS011;4204;43.004;23.052;2022-12-29T05:00:00;21.20;;;13.37;;
8333;SDS011;4204;43.004;23.052;2022-12-29T05:02:28;20.97;;;13.00;;
8333;SDS011;4204;43.004;23.052;2022-12-29T05:04:56;22.83;;;14.43;;
8333;SDS011;4204;43.004;23.052;2022-12-29T05:07:25;22.70;;;14.63;;
8333;SDS011;4204;43.004;23.052;2022-12-29T05:09:55;24.83;;;13.83;;
8333;SDS011;4204;43.004;23.052;2022-12-29T05:12:24;23.57;;;14.60;;
8333;SDS011;4204;43.004;23.052;2022-12-29T05:14:57;24.43;;;13.93;;
8333;SDS011;4204;43.004;23.052;2022-12-29T05:17:24;18.40;;;12.37;;
8333;SDS011;4204;43.004;23.052;2022-12-29T05:19:53;18.50;;;11.23;;
8333;SDS011;4204;43.004;23.052;2022-12-29T05:22:21;21.47;;;12.70;;
8333;SDS011;4204;43.004;23.052;2022-12-29T05:24:49;20.90;;;13.30;;
8333;SDS011;4204;43.004;23.052;2022-12-29T05:27:18;19.13;;;11.97;;
8333;SDS011;4204;43.004;23.052;2022-12-29T05:30:05;17.97;;;12.27;;
8333;SDS011;4204;43.004;23.052;2022-12-29T05:32:34;17.97;;;11.87;;
8333;SDS011;4204;43.004;23.052;2022-12-29T05:35:01;18.90;;;11.37;;
8333;SDS011;4204;43.004;23.052;2022-12-29T05:37:32;15.70;;;11.27;;
8333;SDS011;4204;43.004;23.052;2022-12-29T05:40:00;16.17;;;11.23;;
8333;SDS011;4204;43.004;23.052;2022-12-29T05:42:29;16.73;;;11.40;;
8333;SDS011;4204;43.004;23.052;2022-12-29T05:45:19;17.40;;;10.53;;
8333;SDS011;4204;43.004;23.052;2022-12-29T05:48:05;15.57;;;10.40;;
8333;SDS011;4204;43.004;23.052;2022-12-29T05:51:03;15.50;;;10.63;;
8333;SDS011;4204;43.004;23.052;2022-12-29T05:53:40;13.87;;;9.77;;
8333;SDS011;4204;43.004;23.052;2022-12-29T05:56:07;14.07;;;9.97;;
8333;SDS011;4204;43.004;23.052;2022-12-29T05:58:36;14.20;;;10.13;;
8333;SDS011;4204;43.004;23.052;2022-12-29T06:01:05;16.30;;;10.90;;
8333;SDS011;4204;43.004;23.052;2022-12-29T06:03:32;15.30;;;10.27;;
8333;SDS011;4204;43.004;23.052;2022-12-29T06:06:00;16.27;;;11.00;;
8333;SDS011;4204;43.004;23.052;2022-12-29T06:08:28;14.83;;;10.40;;
8333;SDS011;4204;43.004;23.052;2022-12-29T06:10:56;16.83;;;10.57;;
8333;SDS011;4204;43.004;23.052;2022-12-29T06:13:24;16.93;;;9.60;;
8333;SDS011;4204;43.004;23.052;2022-12-29T06:15:55;15.50;;;10.23;;
8333;SDS011;4204;43.004;23.052;2022-12-29T06:18:25;14.70;;;9.93;;
8333;SDS011;4204;43.004;23.052;2022-12-29T06:20:53;15.83;;;11.17;;
8333;SDS011;4204;43.004;23.052;2022-12-29T06:23:24;18.83;;;11.90;;
8333;SDS011;4204;43.004;23.052;2022-12-29T06:25:52;15.40;;;11.10;;
8333;SDS011;4204;43.004;23.052;2022-12-29T06:28:19;15.10;;;10.97;;
8333;SDS011;4204;43.004;23.052;2022-12-29T06:30:47;15.23;;;10.03;;
8333;SDS011;4204;43.004;23.052;2022-12-29T06:33:18;16.63;;;10.43;;
8333;SDS011;4204;43.004;23.052;2022-12-29T06:35:46;14.10;;;9.80;;
8333;SDS011;4204;43.004;23.052;2022-12-29T06:38:14;14.77;;;10.40;;
8333;SDS011;4204;43.004;23.052;2022-12-29T06:40:42;15.73;;;11.07;;
8333;SDS011;4204;43.004;23.052;2022-12-29T06:43:19;17.37;;;11.00;;
8333;SDS011;4204;43.004;23.052;2022-12-29T06:46:03;19.80;;;11.80;;
8333;SDS011;4204;43.004;23.052;2022-12-29T06:48:33;16.90;;;10.80;;
8333;SDS011;4204;43.004;23.052;2022-12-29T06:51:01;17.23;;;10.53;;
8333;SDS011;4204;43.004;23.052;2022-12-29T06:53:28;17.40;;;11.37;;
8333;SDS011;4204;43.004;23.052;2022-12-29T06:55:56;19.57;;;12.97;;
8333;SDS011;4204;43.004;23.052;2022-12-29T06:58:24;19.70;;;13.50;;
8333;SDS011;4204;43.004;23.052;2022-12-29T07:00:51;18.93;;;11.87;;
8333;SDS011;4204;43.004;23.052;2022-12-29T07:03:22;17.83;;;12.13;;
8333;SDS011;4204;43.004;23.052;2022-12-29T07:05:51;16.37;;;11.73;;
8333;SDS011;4204;43.004;23.052;2022-12-29T07:08:20;16.87;;;11.33;;
8333;SDS011;4204;43.004;23.052;2022-12-29T07:10:47;17.17;;;11.53;;
8333;SDS011;4204;43.004;23.052;2022-12-29T07:13:15;15.13;;;11.07;;
8333;SDS011;4204;43.004;23.052;2022-12-29T07:15:43;19.03;;;10.90;;
8333;SDS011;4204;43.004;23.052;2022-12-29T07:18:10;16.73;;;10.67;;
8333;SDS011;4204;43.004;23.052;2022-12-29T07:20:38;16.27;;;11.17;;
8333;SDS011;4204;43.004;23.052;2022-12-29T07:23:07;14.90;;;9.73;;
8333;SDS011;4204;43.004;23.052;2022-12-29T07:25:35;15.30;;;9.80;;
8333;SDS011;4204;43.004;23.052;2022-12-29T07:28:03;12.90;;;9.23;;
8333;SDS011;4204;43.004;23.052;2022-12-29T07:30:31;17.63;;;12.00;;
8333;SDS011;4204;43.004;23.052;2022-12-29T07:32:58;18.00;;;12.23;;
8333;SDS011;4204;43.004;23.052;2022-12-29T07:35:26;21.83;;;13.33;;
8333;SDS011;4204;43.004;23.052;2022-12-29T07:37:54;20.50;;;11.97;;
8333;SDS011;4204;43.004;23.052;2022-12-29T07:40:23;17.13;;;11.67;;
8333;SDS011;4204;43.004;23.052;2022-12-29T07:42:50;18.60;;;11.53;;
8333;SDS011;4204;43.004;23.052;2022-12-29T07:45:26;15.47;;;11.40;;
8333;SDS011;4204;43.004;23.052;2022-12-29T07:48:03;15.47;;;10.73;;
8333;SDS011;4204;43.004;23.052;2022-12-29T07:50:33;17.83;;;12.03;;
8333;SDS011;4204;43.004;23.052;2022-12-29T07:53:01;19.53;;;13.00;;
8333;SDS011;4204;43.004;23.052;2022-12-29T07:55:30;17.63;;;11.83;;
8333;SDS011;4204;43.004;23.052;2022-12-29T07:57:58;15.80;;;11.00;;
8333;SDS011;4204;43.004;23.052;2022-12-29T08:00:26;16.17;;;9.77;;
8333;SDS011;4204;43.004;23.052;2022-12-29T08:02:54;15.73;;;11.27;;
8333;SDS011;4204;43.004;23.052;2022-12-29T08:05:22;15.67;;;10.10;;
8333;SDS011;4204;43.004;23.052;2022-12-29T08:07:49;18.70;;;10.67;;
8333;SDS011;4204;43.004;23.052;2022-12-29T08:10:17;13.80;;;9.83;;
8333;SDS011;4204;43.004;23.052;2022-12-29T08:12:46;15.40;;;10.10;;
8333;SDS011;4204;43.004;23.052;2022-12-29T08:15:14;17.77;;;10.87;;
8333;SDS011;4204;43.004;23.052;2022-12-29T08:17:42;14.37;;;10.50;;
8333;SDS011;4204;43.004;23.052;2022-12-29T08:20:10;15.37;;;10.70;;
8333;SDS011;4204;43.004;23.052;2022-12-29T08:22:37;16.57;;;10.63;;
8333;SDS011;4204;43.004;23.052;2022-12-29T08:25:05;16.53;;;10.43;;
8333;SDS011;4204;43.004;23.052;2022-12-29T08:27:33;17.00;;;10.93;;
8333;SDS011;4204;43.004;23.052;2022-12-29T08:30:03;18.90;;;12.13;;
8333;SDS011;4204;43.004;23.052;2022-12-29T08:32:31;16.93;;;11.37;;
8333;SDS011;4204;43.004;23.052;2022-12-29T08:34:59;16.87;;;11.03;;
8333;SDS011;4204;43.004;23.052;2022-12-29T08:37:27;15.33;;;11.20;;
8333;SDS011;4204;43.004;23.052;2022-12-29T08:39:55;21.03;;;12.00;;
8333;SDS011;4204;43.004;23.052;2022-12-29T08:42:23;17.77;;;11.97;;
8333;SDS011;4204;43.004;23.052;2022-12-29T08:44:56;20.30;;;11.73;;
8333;SDS011;4204;43.004;23.052;2022-12-29T08:47:25;18.10;;;10.63;;
8333;SDS011;4204;43.004;23.052;2022-12-29T08:49:54;17.03;;;10.80;;
8333;SDS011;4204;43.004;23.052;2022-12-29T08:52:21;17.63;;;10.73;;
8333;SDS011;4204;43.004;23.052;2022-12-29T08:54:49;20.17;;;12.53;;
8333;SDS011;4204;43.004;23.052;2022-12-29T08:57:17;17.80;;;11.50;;
8333;SDS011;4204;43.004;23.052;2022-12-29T09:00:08;16.57;;;11.87;;
8333;SDS011;4204;43.004;23.052;2022-12-29T09:02:38;14.87;;;10.90;;
8333;SDS011;4204;43.004;23.052;2022-12-29T09:05:06;18.90;;;11.57;;
8333;SDS011;4204;43.004;23.052;2022-12-29T09:07:34;17.30;;;11.10;;
8333;SDS011;4204;43.004;23.052;2022-12-29T09:10:02;16.40;;;11.07;;
8333;SDS011;4204;43.004;23.052;2022-12-29T09:12:30;16.77;;;10.67;;
8333;SDS011;4204;43.004;23.052;2022-12-29T09:14:58;17.33;;;11.43;;
8333;SDS011;4204;43.004;23.052;2022-12-29T09:17:26;18.40;;;11.87;;
8333;SDS011;4204;43.004;23.052;2022-12-29T09:20:18;15.80;;;11.10;;
8333;SDS011;4204;43.004;23.052;2022-12-29T09:22:46;17.63;;;11.93;;
8333;SDS011;4204;43.004;23.052;2022-12-29T09:25:15;15.37;;;10.37;;
8333;SDS011;4204;43.004;23.052;2022-12-29T09:27:43;17.03;;;10.47;;
8333;SDS011;4204;43.004;23.052;2022-12-29T09:30:11;16.03;;;11.67;;
8333;SDS011;4204;43.004;23.052;2022-12-29T09:32:40;19.93;;;11.83;;
8333;SDS011;4204;43.004;23.052;2022-12-29T09:35:08;24.40;;;11.93;;
8333;SDS011;4204;43.004;23.052;2022-12-29T09:37:37;23.57;;;15.43;;
8333;SDS011;4204;43.004;23.052;2022-12-29T09:40:05;19.93;;;12.80;;
8333;SDS011;4204;43.004;23.052;2022-12-29T09:42:35;17.77;;;12.40;;
8333;SDS011;4204;43.004;23.052;2022-12-29T09:45:09;19.63;;;13.30;;
8333;SDS011;4204;43.004;23.052;2022-12-29T09:47:41;20.70;;;12.43;;
8333;SDS011;4204;43.004;23.052;2022-12-29T09:50:12;17.47;;;12.53;;
8333;SDS011;4204;43.004;23.052;2022-12-29T09:52:50;16.23;;;12.17;;
8333;SDS011;4204;43.004;23.052;2022-12-29T09:55:21;17.93;;;13.00;;
8333;SDS011;4204;43.004;23.052;2022-12-29T09:57:56;20.60;;;14.97;;
8333;SDS011;4204;43.004;23.052;2022-12-29T10:00:28;16.47;;;12.03;;
8333;SDS011;4204;43.004;23.052;2022-12-29T10:03:10;15.57;;;10.83;;
8333;SDS011;4204;43.004;23.052;2022-12-29T10:05:45;17.77;;;12.07;;
8333;SDS011;4204;43.004;23.052;2022-12-29T10:08:25;24.90;;;15.07;;
8333;SDS011;4204;43.004;23.052;2022-12-29T10:11:02;16.70;;;11.97;;
8333;SDS011;4204;43.004;23.052;2022-12-29T10:13:42;17.83;;;12.80;;
8333;SDS011;4204;43.004;23.052;2022-12-29T10:16:20;20.13;;;14.37;;
8333;SDS011;4204;43.004;23.052;2022-12-29T10:18:59;18.33;;;12.10;;
8333;SDS011;4204;43.004;23.052;2022-12-29T10:21:43;13.17;;;10.33;;
8333;SDS011;4204;43.004;23.052;2022-12-29T10:24:24;16.20;;;11.63;;
8333;SDS011;4204;43.004;23.052;2022-12-29T10:26:53;15.50;;;10.97;;
8333;SDS011;4204;43.004;23.052;2022-12-29T10:29:26;19.57;;;12.57;;
8333;SDS011;4204;43.004;23.052;2022-12-29T10:32:00;16.93;;;12.00;;
8333;SDS011;4204;43.004;23.052;2022-12-29T10:34:33;17.50;;;11.10;;
8333;SDS011;4204;43.004;23.052;2022-12-29T10:37:05;19.40;;;14.93;;
8333;SDS011;4204;43.004;23.052;2022-12-29T10:39:43;23.80;;;15.80;;
8333;SDS011;4204;43.004;23.052;2022-12-29T10:42:19;19.10;;;14.27;;
8333;SDS011;4204;43.004;23.052;2022-12-29T10:44:53;16.93;;;12.30;;
8333;SDS011;4204;43.004;23.052;2022-12-29T10:47:22;19.47;;;13.27;;
8333;SDS011;4204;43.004;23.052;2022-12-29T10:49:52;18.70;;;13.57;;
8333;SDS011;4204;43.004;23.052;2022-12-29T10:52:21;18.90;;;12.23;;
8333;SDS011;4204;43.004;23.052;2022-12-29T10:54:53;16.23;;;12.30;;
8333;SDS011;4204;43.004;23.052;2022-12-29T10:57:25;17.00;;;12.77;;
8333;SDS011;4204;43.004;23.052;2022-12-29T10:59:55;24.63;;;17.43;;
8333;SDS011;4204;43.004;23.052;2022-12-29T11:05:22;17.07;;;12.40;;
8333;SDS011;4204;43.004;23.052;2022-12-29T11:07:57;14.13;;;11.07;;
8333;SDS011;4204;43.004;23.052;2022-12-29T11:10:34;27.50;;;18.40;;
8333;SDS011;4204;43.004;23.052;2022-12-29T11:13:10;24.70;;;18.63;;
8333;SDS011;4204;43.004;23.052;2022-12-29T11:15:39;21.33;;;14.97;;
8333;SDS011;4204;43.004;23.052;2022-12-29T11:18:17;17.77;;;13.13;;
8333;SDS011;4204;43.004;23.052;2022-12-29T11:20:46;21.93;;;16.43;;
8333;SDS011;4204;43.004;23.052;2022-12-29T11:23:22;21.63;;;13.63;;
8333;SDS011;4204;43.004;23.052;2022-12-29T11:26:08;15.60;;;12.10;;
8333;SDS011;4204;43.004;23.052;2022-12-29T11:28:42;13.43;;;10.77;;
8333;SDS011;4204;43.004;23.052;2022-12-29T11:31:15;15.37;;;10.97;;
8333;SDS011;4204;43.004;23.052;2022-12-29T11:33:44;15.43;;;11.33;;
8333;SDS011;4204;43.004;23.052;2022-12-29T11:36:13;15.53;;;12.13;;
8333;SDS011;4204;43.004;23.052;2022-12-29T11:38:46;16.27;;;11.93;;
8333;SDS011;4204;43.004;23.052;2022-12-29T11:41:20;13.63;;;10.43;;
8333;SDS011;4204;43.004;23.052;2022-12-29T11:43:51;15.77;;;10.93;;
8333;SDS011;4204;43.004;23.052;2022-12-29T11:46:22;21.40;;;14.93;;
8333;SDS011;4204;43.004;23.052;2022-12-29T11:48:54;18.57;;;13.13;;
8333;SDS011;4204;43.004;23.052;2022-12-29T11:51:26;16.30;;;12.17;;
8333;SDS011;4204;43.004;23.052;2022-12-29T11:53:56;20.33;;;14.00;;
8333;SDS011;4204;43.004;23.052;2022-12-29T11:56:35;14.47;;;11.53;;
8333;SDS011;4204;43.004;23.052;2022-12-29T12:02:18;16.67;;;9.80;;
8333;SDS011;4204;43.004;23.052;2022-12-29T12:04:54;14.73;;;10.63;;
8333;SDS011;4204;43.004;23.052;2022-12-29T12:07:32;17.83;;;12.00;;
8333;SDS011;4204;43.004;23.052;2022-12-29T12:10:10;17.83;;;12.40;;
8333;SDS011;4204;43.004;23.052;2022-12-29T12:12:47;16.37;;;10.00;;
8333;SDS011;4204;43.004;23.052;2022-12-29T12:15:22;13.87;;;11.03;;
8333;SDS011;4204;43.004;23.052;2022-12-29T12:17:59;15.17;;;11.10;;
8333;SDS011;4204;43.004;23.052;2022-12-29T12:20:36;15.53;;;10.30;;
8333;SDS011;4204;43.004;23.052;2022-12-29T12:23:16;12.87;;;9.73;;
8333;SDS011;4204;43.004;23.052;2022-12-29T12:25:55;12.37;;;9.80;;
8333;SDS011;4204;43.004;23.052;2022-12-29T12:28:34;13.97;;;9.33;;
8333;SDS011;4204;43.004;23.052;2022-12-29T12:31:12;12.97;;;8.87;;
8333;SDS011;4204;43.004;23.052;2022-12-29T12:33:47;17.43;;;11.13;;
8333;SDS011;4204;43.004;23.052;2022-12-29T12:36:39;13.13;;;9.07;;
8333;SDS011;4204;43.004;23.052;2022-12-29T12:39:23;15.53;;;10.33;;
8333;SDS011;4204;43.004;23.052;2022-12-29T12:41:58;10.33;;;8.50;;
8333;SDS011;4204;43.004;23.052;2022-12-29T12:44:36;11.07;;;8.57;;
8333;SDS011;4204;43.004;23.052;2022-12-29T12:50:18;10.37;;;8.40;;
8333;SDS011;4204;43.004;23.052;2022-12-29T12:53:07;13.57;;;9.77;;
8333;SDS011;4204;43.004;23.052;2022-12-29T12:55:50;12.27;;;8.53;;
8333;SDS011;4204;43.004;23.052;2022-12-29T12:58:30;10.60;;;7.77;;
8333;SDS011;4204;43.004;23.052;2022-12-29T13:01:21;11.27;;;8.23;;
8333;SDS011;4204;43.004;23.052;2022-12-29T13:04:08;10.80;;;8.10;;
8333;SDS011;4204;43.004;23.052;2022-12-29T13:06:54;12.07;;;8.40;;
8333;SDS011;4204;43.004;23.052;2022-12-29T13:09:32;11.30;;;7.77;;
8333;SDS011;4204;43.004;23.052;2022-12-29T13:12:17;12.07;;;8.77;;
8333;SDS011;4204;43.004;23.052;2022-12-29T13:14:59;15.70;;;8.57;;
8333;SDS011;4204;43.004;23.052;2022-12-29T13:17:41;10.13;;;8.30;;
8333;SDS011;4204;43.004;23.052;2022-12-29T13:20:18;9.30;;;7.30;;
8333;SDS011;4204;43.004;23.052;2022-12-29T13:22:54;14.00;;;8.57;;
8333;SDS011;4204;43.004;23.052;2022-12-29T13:25:31;12.60;;;9.60;;
8333;SDS011;4204;43.004;23.052;2022-12-29T13:28:09;13.50;;;9.33;;
8333;SDS011;4204;43.004;23.052;2022-12-29T13:30:45;10.10;;;8.77;;
8333;SDS011;4204;43.004;23.052;2022-12-29T13:33:23;12.17;;;8.30;;
8333;SDS011;4204;43.004;23.052;2022-12-29T13:36:02;11.20;;;8.63;;
8333;SDS011;4204;43.004;23.052;2022-12-29T13:38:36;12.77;;;8.70;;
8333;SDS011;4204;43.004;23.052;2022-12-29T13:41:08;10.50;;;8.33;;
8333;SDS011;4204;43.004;23.052;2022-12-29T13:43:39;10.13;;;8.07;;
8333;SDS011;4204;43.004;23.052;2022-12-29T13:46:13;9.97;;;7.50;;
8333;SDS011;4204;43.004;23.052;2022-12-29T13:48:48;11.07;;;9.53;;
8333;SDS011;4204;43.004;23.052;2022-12-29T13:51:18;12.50;;;8.97;;
8333;SDS011;4204;43.004;23.052;2022-12-29T13:53:54;12.00;;;9.00;;
8333;SDS011;4204;43.004;23.052;2022-12-29T13:56:33;10.13;;;8.80;;
8333;SDS011;4204;43.004;23.052;2022-12-29T13:59:08;9.13;;;7.90;;
8333;SDS011;4204;43.004;23.052;2022-12-29T14:01:47;9.53;;;7.83;;
8333;SDS011;4204;43.004;23.052;2022-12-29T14:04:23;13.80;;;9.50;;
8333;SDS011;4204;43.004;23.052;2022-12-29T14:06:59;12.87;;;10.03;;
8333;SDS011;4204;43.004;23.052;2022-12-29T14:09:40;13.93;;;11.17;;
8333;SDS011;4204;43.004;23.052;2022-12-29T14:12:19;13.13;;;9.47;;
8333;SDS011;4204;43.004;23.052;2022-12-29T14:14:53;10.40;;;8.10;;
8333;SDS011;4204;43.004;23.052;2022-12-29T14:17:21;10.37;;;8.23;;
8333;SDS011;4204;43.004;23.052;2022-12-29T14:19:52;24.63;;;15.80;;
8333;SDS011;4204;43.004;23.052;2022-12-29T14:22:24;13.63;;;9.40;;
8333;SDS011;4204;43.004;23.052;2022-12-29T14:24:53;17.23;;;11.50;;
8333;SDS011;4204;43.004;23.052;2022-12-29T14:33:17;11.87;;;9.87;;
8333;SDS011;4204;43.004;23.052;2022-12-29T14:35:49;13.37;;;10.37;;
8333;SDS011;4204;43.004;23.052;2022-12-29T14:38:19;14.93;;;10.03;;
8333;SDS011;4204;43.004;23.052;2022-12-29T14:41:17;14.90;;;10.20;;
8333;SDS011;4204;43.004;23.052;2022-12-29T14:43:53;11.93;;;8.50;;
8333;SDS011;4204;43.004;23.052;2022-12-29T14:46:26;11.33;;;8.37;;
8333;SDS011;4204;43.004;23.052;2022-12-29T14:49:23;11.30;;;8.03;;
8333;SDS011;4204;43.004;23.052;2022-12-29T14:51:54;12.57;;;8.47;;
8333;SDS011;4204;43.004;23.052;2022-12-29T14:54:41;10.63;;;7.47;;
8333;SDS011;4204;43.004;23.052;2022-12-29T14:57:14;9.27;;;7.53;;
8333;SDS011;4204;43.004;23.052;2022-12-29T14:59:53;9.13;;;6.83;;
8333;SDS011;4204;43.004;23.052;2022-12-29T15:02:24;10.00;;;7.80;;
8333;SDS011;4204;43.004;23.052;2022-12-29T15:04:59;12.20;;;7.70;;
8333;SDS011;4204;43.004;23.052;2022-12-29T15:07:29;7.73;;;6.60;;
8333;SDS011;4204;43.004;23.052;2022-12-29T15:09:59;10.00;;;6.40;;
8333;SDS011;4204;43.004;23.052;2022-12-29T15:12:35;9.13;;;6.20;;
8333;SDS011;4204;43.004;23.052;2022-12-29T15:15:20;9.60;;;6.70;;
8333;SDS011;4204;43.004;23.052;2022-12-29T15:17:49;10.37;;;7.37;;
8333;SDS011;4204;43.004;23.052;2022-12-29T15:20:23;9.63;;;7.50;;
8333;SDS011;4204;43.004;23.052;2022-12-29T15:22:55;14.97;;;9.73;;
8333;SDS011;4204;43.004;23.052;2022-12-29T15:25:24;17.73;;;11.57;;
8333;SDS011;4204;43.004;23.052;2022-12-29T15:27:54;25.47;;;12.23;;
8333;SDS011;4204;43.004;23.052;2022-12-29T15:30:24;11.77;;;8.23;;
8333;SDS011;4204;43.004;23.052;2022-12-29T15:32:52;13.97;;;8.80;;
8333;SDS011;4204;43.004;23.052;2022-12-29T15:35:25;8.60;;;6.73;;